Map

Track Data

SID SEASON NUMBER BASIN SUBBASIN NAME ISO_TIME NATURE LAT LON WMO_WIND WMO_PRES WMO_AGENCY TRACK_TYPE DIST2LAND LANDFALL IFLAG USA_AGENCY USA_ATCF_ID USA_LAT USA_LON USA_RECORD USA_STATUS USA_WIND USA_PRES USA_SSHS USA_R34_NE USA_R34_SE USA_R34_SW USA_R34_NW USA_R50_NE USA_R50_SE USA_R50_SW USA_R50_NW USA_R64_NE USA_R64_SE USA_R64_SW USA_R64_NW USA_POCI USA_ROCI USA_RMW USA_EYE TOKYO_LAT TOKYO_LON TOKYO_GRADE TOKYO_WIND TOKYO_PRES TOKYO_R50_DIR TOKYO_R50_LONG TOKYO_R50_SHORT TOKYO_R30_DIR TOKYO_R30_LONG TOKYO_R30_SHORT TOKYO_LAND CMA_LAT CMA_LON CMA_CAT CMA_WIND CMA_PRES HKO_LAT HKO_LON HKO_CAT HKO_WIND HKO_PRES NEWDELHI_LAT NEWDELHI_LON NEWDELHI_GRADE NEWDELHI_WIND NEWDELHI_PRES NEWDELHI_CI NEWDELHI_DP NEWDELHI_POCI REUNION_LAT REUNION_LON REUNION_TYPE REUNION_WIND REUNION_PRES REUNION_TNUM REUNION_CI REUNION_RMW REUNION_R34_NE REUNION_R34_SE REUNION_R34_SW REUNION_R34_NW REUNION_R50_NE REUNION_R50_SE REUNION_R50_SW REUNION_R50_NW REUNION_R64_NE REUNION_R64_SE REUNION_R64_SW REUNION_R64_NW BOM_LAT BOM_LON BOM_TYPE BOM_WIND BOM_PRES BOM_TNUM BOM_CI BOM_RMW BOM_R34_NE BOM_R34_SE BOM_R34_SW BOM_R34_NW BOM_R50_NE BOM_R50_SE BOM_R50_SW BOM_R50_NW BOM_R64_NE BOM_R64_SE BOM_R64_SW BOM_R64_NW BOM_ROCI BOM_POCI BOM_EYE BOM_POS_METHOD BOM_PRES_METHOD NADI_LAT NADI_LON NADI_CAT NADI_WIND NADI_PRES WELLINGTON_LAT WELLINGTON_LON WELLINGTON_WIND WELLINGTON_PRES DS824_LAT DS824_LON DS824_STAGE DS824_WIND DS824_PRES TD9636_LAT TD9636_LON TD9636_STAGE TD9636_WIND TD9636_PRES TD9635_LAT TD9635_LON TD9635_WIND TD9635_PRES TD9635_ROCI NEUMANN_LAT NEUMANN_LON NEUMANN_CLASS NEUMANN_WIND NEUMANN_PRES MLC_LAT MLC_LON MLC_CLASS MLC_WIND MLC_PRES USA_GUST BOM_GUST BOM_GUST_PER REUNION_GUST REUNION_GUST_PER USA_SEAHGT USA_SEARAD_NE USA_SEARAD_SE USA_SEARAD_SW USA_SEARAD_NW STORM_SPEED STORM_DIR
1990187N13258 1990 46 EP MM FAUSTO 1990-07-06 00:00:00 TS 13.3000 -102.100 20 1011 hurdat_epa main 458 433 O_____________ hurdat_epa EP071990 13.3000 -102.100 TD 20 1011 -1 8 320
1990187N13258 1990 46 EP MM FAUSTO 1990-07-06 03:00:00 TS 13.6076 -102.367 main 436 413 P_____________ EP071990 13.6076 -102.367 TD 22 1010 -1 8 321
1990187N13258 1990 46 EP MM FAUSTO 1990-07-06 06:00:00 TS 13.9000 -102.600 25 1009 hurdat_epa main 413 391 O_____________ hurdat_epa EP071990 13.9000 -102.600 TD 25 1009 -1 7 324
1990187N13258 1990 46 EP MM FAUSTO 1990-07-06 09:00:00 TS 14.1649 -102.785 main 391 377 P_____________ EP071990 14.1649 -102.785 TD 25 1008 -1 6 322
1990187N13258 1990 46 EP MM FAUSTO 1990-07-06 12:00:00 TS 14.4000 -103.000 25 1008 hurdat_epa main 382 376 O_____________ hurdat_epa EP071990 14.4000 -103.000 TD 25 1008 -1 7 311
1990187N13258 1990 46 EP MM FAUSTO 1990-07-06 15:00:00 TS 14.5999 -103.298 main 382 373 P_____________ EP071990 14.5999 -103.298 TD 27 1007 -1 8 301
1990187N13258 1990 46 EP MM FAUSTO 1990-07-06 18:00:00 TS 14.8000 -103.700 30 1007 hurdat_epa main 376 366 O_____________ hurdat_epa EP071990 14.8000 -103.700 TD 30 1007 -1 10 296
1990187N13258 1990 46 EP MM FAUSTO 1990-07-06 21:00:00 TS 15.0426 -104.227 main 373 359 P_____________ EP071990 15.0426 -104.227 TD 32 1006 -1 12 295
1990187N13258 1990 46 EP MM FAUSTO 1990-07-07 00:00:00 TS 15.3000 -104.800 35 1005 hurdat_epa main 363 356 O_____________ hurdat_epa EP071990 15.3000 -104.800 TS 35 1005 0 12 296
1990187N13258 1990 46 EP MM FAUSTO 1990-07-07 03:00:00 TS 15.5649 -105.322 main 357 357 P_____________ EP071990 15.5649 -105.322 TS 35 1004 0 11 297
1990187N13258 1990 46 EP MM FAUSTO 1990-07-07 06:00:00 TS 15.8000 -105.800 35 1004 hurdat_epa main 371 370 O_____________ hurdat_epa EP071990 15.8000 -105.800 TS 35 1004 0 10 294
1990187N13258 1990 46 EP MM FAUSTO 1990-07-07 09:00:00 TS 15.9574 -106.223 main 385 385 P_____________ EP071990 15.9574 -106.223 TS 37 1003 0 8 291
1990187N13258 1990 46 EP MM FAUSTO 1990-07-07 12:00:00 TS 16.1000 -106.600 40 1002 hurdat_epa main 395 391 O_____________ hurdat_epa EP071990 16.1000 -106.600 TS 40 1002 0 8 294
1990187N13258 1990 46 EP MM FAUSTO 1990-07-07 15:00:00 TS 16.2774 -106.965 main 399 394 P_____________ EP071990 16.2774 -106.965 TS 42 1001 0 8 301
1990187N13258 1990 46 EP MM FAUSTO 1990-07-07 18:00:00 TS 16.5000 -107.300 45 1000 hurdat_epa main 401 399 O_____________ hurdat_epa EP071990 16.5000 -107.300 TS 45 1000 0 8 310
1990187N13258 1990 46 EP MM FAUSTO 1990-07-07 21:00:00 TS 16.7849 -107.600 main 399 399 P_____________ EP071990 16.7849 -107.600 TS 47 998 0 8 316
1990187N13258 1990 46 EP MM FAUSTO 1990-07-08 00:00:00 TS 17.1000 -107.900 50 997 hurdat_epa main 399 399 O_____________ hurdat_epa EP071990 17.1000 -107.900 TS 50 997 0 9 315
1990187N13258 1990 46 EP MM FAUSTO 1990-07-08 03:00:00 TS 17.4000 -108.243 main 399 399 P_____________ EP071990 17.4000 -108.243 TS 52 995 0 9 312
1990187N13258 1990 46 EP MM FAUSTO 1990-07-08 06:00:00 TS 17.7000 -108.600 55 993 hurdat_epa main 413 413 O_____________ hurdat_epa EP071990 17.7000 -108.600 TS 55 993 0 9 312
1990187N13258 1990 46 EP MM FAUSTO 1990-07-08 09:00:00 TS 17.9999 -108.943 main 421 421 P_____________ EP071990 17.9999 -108.943 TS 60 990 0 9 312
1990187N13258 1990 46 EP MM FAUSTO 1990-07-08 12:00:00 TS 18.3000 -109.300 65 987 hurdat_epa main 442 442 O_____________ hurdat_epa EP071990 18.3000 -109.300 HU 65 987 1 9 310
1990187N13258 1990 46 EP MM FAUSTO 1990-07-08 15:00:00 TS 18.6075 -109.700 main 465 447 P_____________ EP071990 18.6075 -109.700 HU 70 984 1 10 308
1990187N13258 1990 46 EP MM FAUSTO 1990-07-08 18:00:00 TS 18.9000 -110.100 75 981 hurdat_epa main 447 426 O_____________ hurdat_epa EP071990 18.9000 -110.100 HU 75 981 1 9 308
1990187N13258 1990 46 EP MM FAUSTO 1990-07-08 21:00:00 TS 19.1574 -110.458 main 416 398 P_____________ EP071990 19.1574 -110.458 HU 75 980 1 8 307
1990187N13258 1990 46 EP MM FAUSTO 1990-07-09 00:00:00 TS 19.4000 -110.800 75 979 hurdat_epa main 400 383 O_____________ hurdat_epa EP071990 19.4000 -110.800 HU 75 979 1 8 307
1990187N13258 1990 46 EP MM FAUSTO 1990-07-09 03:00:00 TS 19.6500 -111.158 main 389 365 P_____________ EP071990 19.6500 -111.158 HU 75 980 1 8 307
1990187N13258 1990 46 EP MM FAUSTO 1990-07-09 06:00:00 TS 19.9000 -111.500 75 981 hurdat_epa main 369 359 O_____________ hurdat_epa EP071990 19.9000 -111.500 HU 75 981 1 8 309
1990187N13258 1990 46 EP MM FAUSTO 1990-07-09 09:00:00 TS 20.1499 -111.808 main 364 350 P_____________ EP071990 20.1499 -111.808 HU 72 982 1 8 312
1990187N13258 1990 46 EP MM FAUSTO 1990-07-09 12:00:00 TS 20.4000 -112.100 70 984 hurdat_epa main 353 350 O_____________ hurdat_epa EP071990 20.4000 -112.100 HU 70 984 1 7 312
1990187N13258 1990 46 EP MM FAUSTO 1990-07-09 15:00:00 TS 20.6499 -112.393 main 357 348 P_____________ EP071990 20.6499 -112.393 HU 67 985 1 8 312
1990187N13258 1990 46 EP MM FAUSTO 1990-07-09 18:00:00 TS 20.9000 -112.700 65 987 hurdat_epa main 357 357 O_____________ hurdat_epa EP071990 20.9000 -112.700 HU 65 987 1 8 310
1990187N13258 1990 46 EP MM FAUSTO 1990-07-09 21:00:00 TS 21.1499 -113.035 main 368 368 P_____________ EP071990 21.1499 -113.035 HU 70 984 1 8 307
1990187N13258 1990 46 EP MM FAUSTO 1990-07-10 00:00:00 TS 21.4000 -113.400 75 982 hurdat_epa main 382 372 O_____________ hurdat_epa EP071990 21.4000 -113.400 HU 75 982 1 9 305
1990187N13258 1990 46 EP MM FAUSTO 1990-07-10 03:00:00 TS 21.6423 -113.778 main 383 373 P_____________ EP071990 21.6423 -113.778 HU 75 980 1 9 304
1990187N13258 1990 46 EP MM FAUSTO 1990-07-10 06:00:00 TS 21.9000 -114.200 75 979 hurdat_epa main 379 373 O_____________ hurdat_epa EP071990 21.9000 -114.200 HU 75 979 1 10 304
1990187N13258 1990 46 EP MM FAUSTO 1990-07-10 09:00:00 TS 22.2075 -114.685 main 385 383 P_____________ EP071990 22.2075 -114.685 HU 72 981 1 11 303
1990187N13258 1990 46 EP MM FAUSTO 1990-07-10 12:00:00 TS 22.5000 -115.200 70 983 hurdat_epa main 399 399 O_____________ hurdat_epa EP071990 22.5000 -115.200 HU 70 983 1 11 299
1990187N13258 1990 46 EP MM FAUSTO 1990-07-10 15:00:00 TS 22.7223 -115.693 main 426 426 P_____________ EP071990 22.7223 -115.693 HU 62 987 0 10 293
1990187N13258 1990 46 EP MM FAUSTO 1990-07-10 18:00:00 TS 22.9000 -116.200 55 991 hurdat_epa main 458 458 O_____________ hurdat_epa EP071990 22.9000 -116.200 TS 55 991 0 10 289
1990187N13258 1990 46 EP MM FAUSTO 1990-07-10 21:00:00 TS 23.0574 -116.743 main 494 494 P_____________ EP071990 23.0574 -116.743 TS 50 995 0 11 287
1990187N13258 1990 46 EP MM FAUSTO 1990-07-11 00:00:00 TS 23.2000 -117.300 45 1000 hurdat_epa main 533 533 O_____________ hurdat_epa EP071990 23.2000 -117.300 TS 45 1000 0 11 286
1990187N13258 1990 46 EP MM FAUSTO 1990-07-11 03:00:00 TS 23.3498 -117.850 main 559 551 P_____________ EP071990 23.3498 -117.850 TS 42 1001 0 11 287
1990187N13258 1990 46 EP MM FAUSTO 1990-07-11 06:00:00 TS 23.5000 -118.400 40 1003 hurdat_epa main 576 576 O_____________ hurdat_epa EP071990 23.5000 -118.400 TS 40 1003 0 11 286
1990187N13258 1990 46 EP MM FAUSTO 1990-07-11 09:00:00 TS 23.6423 -118.950 main 608 599 P_____________ EP071990 23.6423 -118.950 TS 37 1004 0 11 287
1990187N13258 1990 46 EP MM FAUSTO 1990-07-11 12:00:00 TS 23.8000 -119.500 35 1006 hurdat_epa main 626 626 O_____________ hurdat_epa EP071990 23.8000 -119.500 TS 35 1006 0 11 289
1990187N13258 1990 46 EP MM FAUSTO 1990-07-11 15:00:00 TS 23.9848 -120.050 main 656 656 P_____________ EP071990 23.9848 -120.050 TS 32 1007 -1 11 292
1990187N13258 1990 46 EP MM FAUSTO 1990-07-11 18:00:00 TS 24.2000 -120.600 30 1009 hurdat_epa main 682 682 O_____________ hurdat_epa EP071990 24.2000 -120.600 TD 30 1009 -1 11 295
1990187N13258 1990 46 EP MM FAUSTO 1990-07-11 21:00:00 TS 24.4496 -121.135 main 711 711 P_____________ EP071990 24.4496 -121.135 TD 27 1010 -1 11 297
1990187N13258 1990 46 EP MM FAUSTO 1990-07-12 00:00:00 TS 24.7000 -121.700 25 1011 hurdat_epa main 747 747 O_____________ hurdat_epa EP071990 24.7000 -121.700 TD 25 1011 -1 12 294
1990187N13258 1990 46 EP MM FAUSTO 1990-07-12 03:00:00 TS 24.9223 -122.328 main 791 791 P_____________ EP071990 24.9223 -122.328 TD 25 1011 -1 12 289
1990187N13258 1990 46 EP MM FAUSTO 1990-07-12 06:00:00 TS 25.1000 -123.000 25 1012 hurdat_epa main 847 847 O_____________ hurdat_epa EP071990 25.1000 -123.000 TD 25 1012 -1 13 284
1990187N13258 1990 46 EP MM FAUSTO 1990-07-12 09:00:00 TS 25.2223 -123.693 main 909 909 P_____________ EP071990 25.2223 -123.693 TD 22 1012 -1 13 279
1990187N13258 1990 46 EP MM FAUSTO 1990-07-12 12:00:00 TS 25.3000 -124.400 20 1013 hurdat_epa main 971 971 O_____________ hurdat_epa EP071990 25.3000 -124.400 TD 20 1013 -1 13 276
1990187N13258 1990 46 EP MM FAUSTO 1990-07-12 15:00:00 TS 25.3556 -125.102 main 1035 1035 P_____________ EP071990 25.3556 -125.102 TD 20 1013 -1 13 275
1990187N13258 1990 46 EP MM FAUSTO 1990-07-12 18:00:00 TS 25.4000 -125.800 20 1014 hurdat_epa main 1103 O_____________ hurdat_epa EP071990 25.4000 -125.800 TD 20 1014 -1 13 274

About IBTrACS Database

This database is a web-friendly format of International Best Track Archive for Climate Stewardship (IBTrACS), a global best track data archive curated by NOAA dating back to 1842.

Updated: 2021-10-25